sensor_id;sensor_type;location;lat;lon;timestamp;temperature;humidity
2621;DHT22;1320;48.128;11.592;2024-01-30T00:01:51;5.50;99.90
2621;DHT22;1320;48.128;11.592;2024-01-30T00:04:17;5.40;99.90
2621;DHT22;1320;48.128;11.592;2024-01-30T00:06:44;5.40;99.90
2621;DHT22;1320;48.128;11.592;2024-01-30T00:09:09;5.40;99.90
2621;DHT22;1320;48.128;11.592;2024-01-30T00:11:38;5.30;99.90
2621;DHT22;1320;48.128;11.592;2024-01-30T00:14:04;5.20;99.90
2621;DHT22;1320;48.128;11.592;2024-01-30T00:16:30;5.20;99.90
2621;DHT22;1320;48.128;11.592;2024-01-30T00:18:56;5.20;99.90
2621;DHT22;1320;48.128;11.592;2024-01-30T00:21:22;5.20;99.90
2621;DHT22;1320;48.128;11.592;2024-01-30T00:23:48;5.20;99.90
2621;DHT22;1320;48.128;11.592;2024-01-30T00:26:13;5.20;99.90
2621;DHT22;1320;48.128;11.592;2024-01-30T00:28:41;5.10;99.90
2621;DHT22;1320;48.128;11.592;2024-01-30T00:31:07;5.10;99.90
2621;DHT22;1320;48.128;11.592;2024-01-30T00:33:33;5.10;99.90
2621;DHT22;1320;48.128;11.592;2024-01-30T00:35:58;5.00;99.90
2621;DHT22;1320;48.128;11.592;2024-01-30T00:38:24;4.90;99.90
2621;DHT22;1320;48.128;11.592;2024-01-30T00:40:49;4.90;99.90
2621;DHT22;1320;48.128;11.592;2024-01-30T00:43:15;4.90;99.90
2621;DHT22;1320;48.128;11.592;2024-01-30T00:45:41;4.80;99.90
2621;DHT22;1320;48.128;11.592;2024-01-30T00:48:08;4.80;99.90
2621;DHT22;1320;48.128;11.592;2024-01-30T00:50:35;4.70;99.90
2621;DHT22;1320;48.128;11.592;2024-01-30T00:53:01;4.70;99.90
2621;DHT22;1320;48.128;11.592;2024-01-30T00:55:27;4.60;99.90
2621;DHT22;1320;48.128;11.592;2024-01-30T00:57:53;4.60;99.90
2621;DHT22;1320;48.128;11.592;2024-01-30T01:00:18;4.60;99.90
2621;DHT22;1320;48.128;11.592;2024-01-30T01:02:46;4.50;99.90
2621;DHT22;1320;48.128;11.592;2024-01-30T01:05:12;4.50;99.90
2621;DHT22;1320;48.128;11.592;2024-01-30T01:07:37;4.40;99.90
2621;DHT22;1320;48.128;11.592;2024-01-30T01:10:03;4.40;99.90
2621;DHT22;1320;48.128;11.592;2024-01-30T01:12:29;4.40;99.90
2621;DHT22;1320;48.128;11.592;2024-01-30T01:14:55;4.40;99.90
2621;DHT22;1320;48.128;11.592;2024-01-30T01:17:21;4.40;99.90
2621;DHT22;1320;48.128;11.592;2024-01-30T01:19:46;4.40;99.90
2621;DHT22;1320;48.128;11.592;2024-01-30T01:22:12;4.40;99.90
2621;DHT22;1320;48.128;11.592;2024-01-30T01:24:38;4.40;99.90
2621;DHT22;1320;48.128;11.592;2024-01-30T01:27:04;4.50;99.90
2621;DHT22;1320;48.128;11.592;2024-01-30T01:29:31;4.50;99.90
2621;DHT22;1320;48.128;11.592;2024-01-30T01:31:56;4.50;99.90
2621;DHT22;1320;48.128;11.592;2024-01-30T01:34:22;4.40;99.90
2621;DHT22;1320;48.128;11.592;2024-01-30T01:36:51;4.40;99.90
2621;DHT22;1320;48.128;11.592;2024-01-30T01:39:17;4.40;99.90
2621;DHT22;1320;48.128;11.592;2024-01-30T01:41:43;4.40;99.90
2621;DHT22;1320;48.128;11.592;2024-01-30T01:44:09;4.40;99.90
2621;DHT22;1320;48.128;11.592;2024-01-30T01:46:35;4.50;99.90
2621;DHT22;1320;48.128;11.592;2024-01-30T01:49:05;4.40;99.90
2621;DHT22;1320;48.128;11.592;2024-01-30T01:51:34;4.40;99.90
2621;DHT22;1320;48.128;11.592;2024-01-30T01:54:05;4.40;99.90
2621;DHT22;1320;48.128;11.592;2024-01-30T01:56:33;4.40;99.90
2621;DHT22;1320;48.128;11.592;2024-01-30T01:59:06;4.40;99.90
2621;DHT22;1320;48.128;11.592;2024-01-30T02:01:33;4.40;99.90
2621;DHT22;1320;48.128;11.592;2024-01-30T02:04:00;4.40;99.90
2621;DHT22;1320;48.128;11.592;2024-01-30T02:06:27;4.40;99.90
2621;DHT22;1320;48.128;11.592;2024-01-30T02:08:53;4.40;99.90
2621;DHT22;1320;48.128;11.592;2024-01-30T02:11:20;4.40;99.90
2621;DHT22;1320;48.128;11.592;2024-01-30T02:13:46;4.40;99.90
2621;DHT22;1320;48.128;11.592;2024-01-30T02:16:11;4.40;99.90
2621;DHT22;1320;48.128;11.592;2024-01-30T02:18:37;4.30;99.90
2621;DHT22;1320;48.128;11.592;2024-01-30T02:21:07;4.30;99.90
2621;DHT22;1320;48.128;11.592;2024-01-30T02:23:33;4.30;99.90
2621;DHT22;1320;48.128;11.592;2024-01-30T02:26:00;4.30;99.90
2621;DHT22;1320;48.128;11.592;2024-01-30T02:28:25;4.30;99.90
2621;DHT22;1320;48.128;11.592;2024-01-30T02:30:51;4.30;99.90
2621;DHT22;1320;48.128;11.592;2024-01-30T02:33:17;4.30;99.90
2621;DHT22;1320;48.128;11.592;2024-01-30T02:35:42;4.30;99.90
2621;DHT22;1320;48.128;11.592;2024-01-30T02:38:08;4.30;99.90
2621;DHT22;1320;48.128;11.592;2024-01-30T02:40:34;4.30;99.90
2621;DHT22;1320;48.128;11.592;2024-01-30T02:43:01;4.30;99.90
2621;DHT22;1320;48.128;11.592;2024-01-30T02:45:27;4.30;99.90
2621;DHT22;1320;48.128;11.592;2024-01-30T02:47:52;4.30;99.90
2621;DHT22;1320;48.128;11.592;2024-01-30T02:50:18;4.30;99.90
2621;DHT22;1320;48.128;11.592;2024-01-30T02:52:44;4.30;99.90
2621;DHT22;1320;48.128;11.592;2024-01-30T02:55:10;4.20;99.90
2621;DHT22;1320;48.128;11.592;2024-01-30T02:57:36;4.20;99.90
2621;DHT22;1320;48.128;11.592;2024-01-30T03:00:02;4.20;99.90
2621;DHT22;1320;48.128;11.592;2024-01-30T03:02:29;4.10;99.90
2621;DHT22;1320;48.128;11.592;2024-01-30T03:04:55;4.10;99.90
2621;DHT22;1320;48.128;11.592;2024-01-30T03:07:20;4.00;99.90
2621;DHT22;1320;48.128;11.592;2024-01-30T03:09:46;3.90;99.90
2621;DHT22;1320;48.128;11.592;2024-01-30T03:12:12;3.90;99.90
2621;DHT22;1320;48.128;11.592;2024-01-30T03:14:37;3.80;99.90
2621;DHT22;1320;48.128;11.592;2024-01-30T03:17:03;3.80;99.90
2621;DHT22;1320;48.128;11.592;2024-01-30T03:19:29;3.70;99.90
2621;DHT22;1320;48.128;11.592;2024-01-30T03:21:54;3.70;99.90
2621;DHT22;1320;48.128;11.592;2024-01-30T03:24:20;3.60;99.90
2621;DHT22;1320;48.128;11.592;2024-01-30T03:26:46;3.60;99.90
2621;DHT22;1320;48.128;11.592;2024-01-30T03:29:11;3.50;99.90
2621;DHT22;1320;48.128;11.592;2024-01-30T03:31:38;3.50;99.90
2621;DHT22;1320;48.128;11.592;2024-01-30T03:34:04;3.50;99.90
2621;DHT22;1320;48.128;11.592;2024-01-30T03:36:30;3.50;99.90
2621;DHT22;1320;48.128;11.592;2024-01-30T03:38:58;3.50;99.90
2621;DHT22;1320;48.128;11.592;2024-01-30T03:41:24;3.50;99.90
2621;DHT22;1320;48.128;11.592;2024-01-30T03:43:50;3.60;99.90
2621;DHT22;1320;48.128;11.592;2024-01-30T03:46:16;3.60;99.90
2621;DHT22;1320;48.128;11.592;2024-01-30T03:48:42;3.70;99.90
2621;DHT22;1320;48.128;11.592;2024-01-30T03:51:07;3.80;99.90
2621;DHT22;1320;48.128;11.592;2024-01-30T03:53:34;3.80;99.90
2621;DHT22;1320;48.128;11.592;2024-01-30T03:55:59;3.90;99.90
2621;DHT22;1320;48.128;11.592;2024-01-30T03:58:25;3.90;99.90
2621;DHT22;1320;48.128;11.592;2024-01-30T04:00:51;4.00;99.90
2621;DHT22;1320;48.128;11.592;2024-01-30T04:03:17;4.00;99.90
2621;DHT22;1320;48.128;11.592;2024-01-30T04:05:42;4.00;99.90
2621;DHT22;1320;48.128;11.592;2024-01-30T04:08:08;4.10;99.90
2621;DHT22;1320;48.128;11.592;2024-01-30T04:10:40;4.10;99.90
2621;DHT22;1320;48.128;11.592;2024-01-30T04:13:06;4.00;99.90
2621;DHT22;1320;48.128;11.592;2024-01-30T04:15:31;4.00;99.90
2621;DHT22;1320;48.128;11.592;2024-01-30T04:17:58;4.00;99.90
2621;DHT22;1320;48.128;11.592;2024-01-30T04:20:25;4.00;99.90
2621;DHT22;1320;48.128;11.592;2024-01-30T04:22:51;4.00;99.90
2621;DHT22;1320;48.128;11.592;2024-01-30T04:25:16;4.10;99.90
2621;DHT22;1320;48.128;11.592;2024-01-30T04:27:42;4.10;99.90
2621;DHT22;1320;48.128;11.592;2024-01-30T04:30:08;4.10;99.90
2621;DHT22;1320;48.128;11.592;2024-01-30T04:32:35;4.10;99.90
2621;DHT22;1320;48.128;11.592;2024-01-30T04:35:01;4.10;99.90
2621;DHT22;1320;48.128;11.592;2024-01-30T04:37:27;4.20;99.90
2621;DHT22;1320;48.128;11.592;2024-01-30T04:39:53;4.20;99.90
2621;DHT22;1320;48.128;11.592;2024-01-30T04:42:18;4.10;99.90
2621;DHT22;1320;48.128;11.592;2024-01-30T04:44:44;4.10;99.90
2621;DHT22;1320;48.128;11.592;2024-01-30T04:47:10;4.10;99.90
2621;DHT22;1320;48.128;11.592;2024-01-30T04:49:39;4.20;99.90
2621;DHT22;1320;48.128;11.592;2024-01-30T04:52:08;4.20;99.90
2621;DHT22;1320;48.128;11.592;2024-01-30T04:54:35;4.20;99.90
2621;DHT22;1320;48.128;11.592;2024-01-30T04:57:01;4.20;99.90
2621;DHT22;1320;48.128;11.592;2024-01-30T04:59:27;4.20;99.90
2621;DHT22;1320;48.128;11.592;2024-01-30T05:01:53;4.20;99.90
2621;DHT22;1320;48.128;11.592;2024-01-30T05:04:19;4.20;99.90
2621;DHT22;1320;48.128;11.592;2024-01-30T05:06:44;4.20;99.90
2621;DHT22;1320;48.128;11.592;2024-01-30T05:09:10;4.20;99.90
2621;DHT22;1320;48.128;11.592;2024-01-30T05:11:40;4.10;99.90
2621;DHT22;1320;48.128;11.592;2024-01-30T05:14:06;4.20;99.90
2621;DHT22;1320;48.128;11.592;2024-01-30T05:16:32;4.20;99.90
2621;DHT22;1320;48.128;11.592;2024-01-30T05:18:58;4.20;99.90
2621;DHT22;1320;48.128;11.592;2024-01-30T05:21:24;4.20;99.90
2621;DHT22;1320;48.128;11.592;2024-01-30T05:23:50;4.20;99.90
2621;DHT22;1320;48.128;11.592;2024-01-30T05:26:16;4.20;99.90
2621;DHT22;1320;48.128;11.592;2024-01-30T05:28:42;4.30;99.90
2621;DHT22;1320;48.128;11.592;2024-01-30T05:31:10;4.30;99.90
2621;DHT22;1320;48.128;11.592;2024-01-30T05:33:36;4.30;99.90
2621;DHT22;1320;48.128;11.592;2024-01-30T05:36:01;4.30;99.90
2621;DHT22;1320;48.128;11.592;2024-01-30T05:38:30;4.30;99.90
2621;DHT22;1320;48.128;11.592;2024-01-30T05:40:57;4.30;99.90
2621;DHT22;1320;48.128;11.592;2024-01-30T05:43:25;4.30;99.90
2621;DHT22;1320;48.128;11.592;2024-01-30T05:45:51;4.30;99.90
2621;DHT22;1320;48.128;11.592;2024-01-30T05:48:18;4.30;99.90
2621;DHT22;1320;48.128;11.592;2024-01-30T05:50:43;4.30;99.90
2621;DHT22;1320;48.128;11.592;2024-01-30T05:53:10;4.30;99.90
2621;DHT22;1320;48.128;11.592;2024-01-30T05:55:36;4.30;99.90
2621;DHT22;1320;48.128;11.592;2024-01-30T05:58:02;4.30;99.90
2621;DHT22;1320;48.128;11.592;2024-01-30T06:00:27;4.20;99.90
2621;DHT22;1320;48.128;11.592;2024-01-30T06:02:53;4.20;99.90
2621;DHT22;1320;48.128;11.592;2024-01-30T06:05:19;4.20;99.90
2621;DHT22;1320;48.128;11.592;2024-01-30T06:07:45;4.20;99.90
2621;DHT22;1320;48.128;11.592;2024-01-30T06:10:10;4.10;99.90
2621;DHT22;1320;48.128;11.592;2024-01-30T06:12:37;4.10;99.90
2621;DHT22;1320;48.128;11.592;2024-01-30T06:15:03;4.10;99.90
2621;DHT22;1320;48.128;11.592;2024-01-30T06:17:29;4.10;99.90
2621;DHT22;1320;48.128;11.592;2024-01-30T06:19:55;4.20;99.90
2621;DHT22;1320;48.128;11.592;2024-01-30T06:22:20;4.20;99.90
2621;DHT22;1320;48.128;11.592;2024-01-30T06:24:46;4.20;99.90
2621;DHT22;1320;48.128;11.592;2024-01-30T06:27:14;4.20;99.90
2621;DHT22;1320;48.128;11.592;2024-01-30T06:29:42;4.20;99.90
2621;DHT22;1320;48.128;11.592;2024-01-30T06:32:08;4.10;99.90
2621;DHT22;1320;48.128;11.592;2024-01-30T06:34:34;4.20;99.90
2621;DHT22;1320;48.128;11.592;2024-01-30T06:37:00;4.20;99.90
2621;DHT22;1320;48.128;11.592;2024-01-30T06:39:26;4.10;99.90
2621;DHT22;1320;48.128;11.592;2024-01-30T06:41:52;4.20;99.90
2621;DHT22;1320;48.128;11.592;2024-01-30T06:44:18;4.20;99.90
2621;DHT22;1320;48.128;11.592;2024-01-30T06:46:43;4.20;99.90
2621;DHT22;1320;48.128;11.592;2024-01-30T06:49:09;4.20;99.90
2621;DHT22;1320;48.128;11.592;2024-01-30T06:51:35;4.20;99.90
2621;DHT22;1320;48.128;11.592;2024-01-30T06:54:01;4.20;99.90
2621;DHT22;1320;48.128;11.592;2024-01-30T06:56:26;4.10;99.90
2621;DHT22;1320;48.128;11.592;2024-01-30T06:58:52;4.20;99.90
2621;DHT22;1320;48.128;11.592;2024-01-30T07:01:18;4.20;99.90
2621;DHT22;1320;48.128;11.592;2024-01-30T07:03:43;4.20;99.90
2621;DHT22;1320;48.128;11.592;2024-01-30T07:06:10;4.30;99.90
2621;DHT22;1320;48.128;11.592;2024-01-30T07:08:38;4.30;99.90
2621;DHT22;1320;48.128;11.592;2024-01-30T07:11:07;4.40;99.90
2621;DHT22;1320;48.128;11.592;2024-01-30T07:13:34;4.40;99.90
2621;DHT22;1320;48.128;11.592;2024-01-30T07:16:00;4.40;99.90
2621;DHT22;1320;48.128;11.592;2024-01-30T07:18:25;4.50;99.90
2621;DHT22;1320;48.128;11.592;2024-01-30T07:20:51;4.50;99.90
2621;DHT22;1320;48.128;11.592;2024-01-30T07:23:17;4.50;99.90
2621;DHT22;1320;48.128;11.592;2024-01-30T07:25:46;4.50;99.90
2621;DHT22;1320;48.128;11.592;2024-01-30T07:28:14;4.60;99.90
2621;DHT22;1320;48.128;11.592;2024-01-30T07:30:42;4.60;99.90
2621;DHT22;1320;48.128;11.592;2024-01-30T07:33:08;4.70;99.90
2621;DHT22;1320;48.128;11.592;2024-01-30T07:35:34;4.70;99.90
2621;DHT22;1320;48.128;11.592;2024-01-30T07:38:00;4.70;99.90
2621;DHT22;1320;48.128;11.592;2024-01-30T07:40:25;4.80;99.90
2621;DHT22;1320;48.128;11.592;2024-01-30T07:42:53;4.80;99.90
2621;DHT22;1320;48.128;11.592;2024-01-30T07:45:19;4.80;99.90
2621;DHT22;1320;48.128;11.592;2024-01-30T07:47:51;4.80;99.90
2621;DHT22;1320;48.128;11.592;2024-01-30T07:50:17;4.80;99.90
2621;DHT22;1320;48.128;11.592;2024-01-30T07:52:43;4.90;99.90
2621;DHT22;1320;48.128;11.592;2024-01-30T07:55:09;4.90;99.90
2621;DHT22;1320;48.128;11.592;2024-01-30T07:57:35;4.90;99.90
2621;DHT22;1320;48.128;11.592;2024-01-30T08:00:01;5.00;99.90
2621;DHT22;1320;48.128;11.592;2024-01-30T08:02:28;5.10;99.90
2621;DHT22;1320;48.128;11.592;2024-01-30T08:04:53;5.10;99.90
2621;DHT22;1320;48.128;11.592;2024-01-30T08:09:47;5.30;99.90
2621;DHT22;1320;48.128;11.592;2024-01-30T08:14:39;5.40;99.60
2621;DHT22;1320;48.128;11.592;2024-01-30T08:19:33;5.60;99.40
2621;DHT22;1320;48.128;11.592;2024-01-30T08:21:59;5.70;99.70
2621;DHT22;1320;48.128;11.592;2024-01-30T08:24:25;5.80;99.60
2621;DHT22;1320;48.128;11.592;2024-01-30T08:26:50;6.00;99.50
2621;DHT22;1320;48.128;11.592;2024-01-30T08:29:16;6.30;99.90
2621;DHT22;1320;48.128;11.592;2024-01-30T08:31:41;6.30;99.90
2621;DHT22;1320;48.128;11.592;2024-01-30T08:36:33;6.50;99.90
2621;DHT22;1320;48.128;11.592;2024-01-30T08:38:59;6.60;99.90
2621;DHT22;1320;48.128;11.592;2024-01-30T08:41:25;6.70;99.90
2621;DHT22;1320;48.128;11.592;2024-01-30T08:43:51;6.90;98.60
2621;DHT22;1320;48.128;11.592;2024-01-30T08:46:20;7.00;98.80
2621;DHT22;1320;48.128;11.592;2024-01-30T08:48:46;7.20;98.70
2621;DHT22;1320;48.128;11.592;2024-01-30T08:51:13;7.50;98.90
2621;DHT22;1320;48.128;11.592;2024-01-30T08:53:39;7.80;98.60
2621;DHT22;1320;48.128;11.592;2024-01-30T08:56:06;8.20;98.50
2621;DHT22;1320;48.128;11.592;2024-01-30T08:58:32;8.60;98.10
2621;DHT22;1320;48.128;11.592;2024-01-30T09:00:58;9.10;97.90
2621;DHT22;1320;48.128;11.592;2024-01-30T09:03:24;9.50;97.60
2621;DHT22;1320;48.128;11.592;2024-01-30T09:08:15;10.40;95.80
2621;DHT22;1320;48.128;11.592;2024-01-30T09:10:41;10.90;95.30
2621;DHT22;1320;48.128;11.592;2024-01-30T09:13:07;11.30;95.00
2621;DHT22;1320;48.128;11.592;2024-01-30T09:15:33;11.60;94.40
2621;DHT22;1320;48.128;11.592;2024-01-30T09:17:58;12.00;94.20
2621;DHT22;1320;48.128;11.592;2024-01-30T09:20:25;12.30;93.30
2621;DHT22;1320;48.128;11.592;2024-01-30T09:22:50;12.70;92.50
2621;DHT22;1320;48.128;11.592;2024-01-30T09:25:16;13.10;92.50
2621;DHT22;1320;48.128;11.592;2024-01-30T09:30:10;13.80;90.90
2621;DHT22;1320;48.128;11.592;2024-01-30T09:35:02;14.40;90.20
2621;DHT22;1320;48.128;11.592;2024-01-30T09:37:27;14.70;89.10
2621;DHT22;1320;48.128;11.592;2024-01-30T09:39:56;14.90;87.00
2621;DHT22;1320;48.128;11.592;2024-01-30T09:42:34;15.20;86.40
2621;DHT22;1320;48.128;11.592;2024-01-30T09:45:04;15.30;85.30
2621;DHT22;1320;48.128;11.592;2024-01-30T09:47:32;15.50;84.10
2621;DHT22;1320;48.128;11.592;2024-01-30T09:50:03;15.80;82.90
2621;DHT22;1320;48.128;11.592;2024-01-30T09:52:31;15.90;82.30
2621;DHT22;1320;48.128;11.592;2024-01-30T09:54:59;16.10;81.00
2621;DHT22;1320;48.128;11.592;2024-01-30T09:57:25;16.20;80.30
2621;DHT22;1320;48.128;11.592;2024-01-30T09:59:51;16.40;79.10
2621;DHT22;1320;48.128;11.592;2024-01-30T10:02:19;16.50;78.90
2621;DHT22;1320;48.128;11.592;2024-01-30T10:04:48;16.60;77.70
2621;DHT22;1320;48.128;11.592;2024-01-30T10:07:14;16.70;77.40
2621;DHT22;1320;48.128;11.592;2024-01-30T10:09:40;16.90;76.50
2621;DHT22;1320;48.128;11.592;2024-01-30T10:12:06;17.10;77.00
2621;DHT22;1320;48.128;11.592;2024-01-30T10:14:33;17.20;74.10
2621;DHT22;1320;48.128;11.592;2024-01-30T10:17:00;17.40;75.20
2621;DHT22;1320;48.128;11.592;2024-01-30T10:19:26;17.60;74.70
2621;DHT22;1320;48.128;11.592;2024-01-30T10:21:52;17.70;73.50
2621;DHT22;1320;48.128;11.592;2024-01-30T10:24:18;17.80;72.40
2621;DHT22;1320;48.128;11.592;2024-01-30T10:26:44;17.80;72.10
2621;DHT22;1320;48.128;11.592;2024-01-30T10:29:10;18.00;71.90
2621;DHT22;1320;48.128;11.592;2024-01-30T10:31:36;18.10;72.80
2621;DHT22;1320;48.128;11.592;2024-01-30T10:34:01;18.10;70.50
2621;DHT22;1320;48.128;11.592;2024-01-30T10:36:32;18.10;69.80
2621;DHT22;1320;48.128;11.592;2024-01-30T10:39:00;18.20;69.80
2621;DHT22;1320;48.128;11.592;2024-01-30T10:41:27;18.30;67.90
2621;DHT22;1320;48.128;11.592;2024-01-30T10:44:22;18.30;68.00
2621;DHT22;1320;48.128;11.592;2024-01-30T10:46:53;18.00;68.00
2621;DHT22;1320;48.128;11.592;2024-01-30T10:49:23;17.80;67.60
2621;DHT22;1320;48.128;11.592;2024-01-30T10:51:49;17.60;68.10
2621;DHT22;1320;48.128;11.592;2024-01-30T10:54:15;17.50;68.80
2621;DHT22;1320;48.128;11.592;2024-01-30T10:56:43;17.50;68.40
2621;DHT22;1320;48.128;11.592;2024-01-30T10:59:09;17.40;68.50
2621;DHT22;1320;48.128;11.592;2024-01-30T11:01:36;17.40;68.10
2621;DHT22;1320;48.128;11.592;2024-01-30T11:04:02;17.30;67.90
2621;DHT22;1320;48.128;11.592;2024-01-30T11:06:28;17.40;68.10
2621;DHT22;1320;48.128;11.592;2024-01-30T11:09:04;17.50;68.50
2621;DHT22;1320;48.128;11.592;2024-01-30T11:12:12;17.90;68.60
2621;DHT22;1320;48.128;11.592;2024-01-30T11:14:38;18.40;67.80
2621;DHT22;1320;48.128;11.592;2024-01-30T11:17:06;18.70;67.60
2621;DHT22;1320;48.128;11.592;2024-01-30T11:19:32;18.80;66.40
2621;DHT22;1320;48.128;11.592;2024-01-30T11:21:59;18.60;66.40
2621;DHT22;1320;48.128;11.592;2024-01-30T11:24:26;18.60;66.10
2621;DHT22;1320;48.128;11.592;2024-01-30T11:26:58;18.60;67.20
2621;DHT22;1320;48.128;11.592;2024-01-30T11:29:28;18.80;66.40
2621;DHT22;1320;48.128;11.592;2024-01-30T11:31:54;19.00;66.00
2621;DHT22;1320;48.128;11.592;2024-01-30T11:34:21;19.10;66.40
2621;DHT22;1320;48.128;11.592;2024-01-30T11:36:56;19.00;65.50
2621;DHT22;1320;48.128;11.592;2024-01-30T11:39:29;19.00;64.70
2621;DHT22;1320;48.128;11.592;2024-01-30T11:41:55;18.90;64.70
2621;DHT22;1320;48.128;11.592;2024-01-30T11:44:22;18.80;63.60
2621;DHT22;1320;48.128;11.592;2024-01-30T11:46:52;18.60;62.80
2621;DHT22;1320;48.128;11.592;2024-01-30T11:49:18;18.50;64.30
2621;DHT22;1320;48.128;11.592;2024-01-30T11:51:47;18.50;64.20
2621;DHT22;1320;48.128;11.592;2024-01-30T11:54:16;18.30;64.40
2621;DHT22;1320;48.128;11.592;2024-01-30T11:56:42;18.30;64.10
2621;DHT22;1320;48.128;11.592;2024-01-30T11:59:09;18.30;64.00
2621;DHT22;1320;48.128;11.592;2024-01-30T12:01:36;18.10;68.00
2621;DHT22;1320;48.128;11.592;2024-01-30T12:04:02;18.00;70.00
2621;DHT22;1320;48.128;11.592;2024-01-30T12:06:28;18.00;65.20
2621;DHT22;1320;48.128;11.592;2024-01-30T12:08:58;18.00;64.70
2621;DHT22;1320;48.128;11.592;2024-01-30T12:11:25;18.00;63.80
2621;DHT22;1320;48.128;11.592;2024-01-30T12:13:52;17.90;63.70
2621;DHT22;1320;48.128;11.592;2024-01-30T12:16:18;17.90;64.20
2621;DHT22;1320;48.128;11.592;2024-01-30T12:18:44;18.10;63.70
2621;DHT22;1320;48.128;11.592;2024-01-30T12:21:09;18.30;64.60
2621;DHT22;1320;48.128;11.592;2024-01-30T12:23:35;18.50;64.20
2621;DHT22;1320;48.128;11.592;2024-01-30T12:26:01;18.60;63.30
2621;DHT22;1320;48.128;11.592;2024-01-30T12:28:29;18.70;62.90
2621;DHT22;1320;48.128;11.592;2024-01-30T12:31:02;18.70;63.20
2621;DHT22;1320;48.128;11.592;2024-01-30T12:33:29;18.90;62.30
2621;DHT22;1320;48.128;11.592;2024-01-30T12:36:01;19.00;63.40
2621;DHT22;1320;48.128;11.592;2024-01-30T12:38:27;19.10;62.70
2621;DHT22;1320;48.128;11.592;2024-01-30T12:40:55;19.10;62.30
2621;DHT22;1320;48.128;11.592;2024-01-30T12:43:22;19.20;61.90
2621;DHT22;1320;48.128;11.592;2024-01-30T12:45:49;19.40;61.40
2621;DHT22;1320;48.128;11.592;2024-01-30T12:48:15;19.40;62.20
2621;DHT22;1320;48.128;11.592;2024-01-30T12:50:43;19.50;61.20
2621;DHT22;1320;48.128;11.592;2024-01-30T12:53:08;19.60;61.30
2621;DHT22;1320;48.128;11.592;2024-01-30T12:55:35;19.60;61.00
2621;DHT22;1320;48.128;11.592;2024-01-30T12:58:00;19.60;60.80
2621;DHT22;1320;48.128;11.592;2024-01-30T13:00:26;19.60;59.90
2621;DHT22;1320;48.128;11.592;2024-01-30T13:02:52;19.60;58.90
2621;DHT22;1320;48.128;11.592;2024-01-30T13:05:18;19.60;60.70
2621;DHT22;1320;48.128;11.592;2024-01-30T13:07:44;19.60;60.70
2621;DHT22;1320;48.128;11.592;2024-01-30T13:10:09;19.60;60.10
2621;DHT22;1320;48.128;11.592;2024-01-30T13:12:35;19.50;60.80
2621;DHT22;1320;48.128;11.592;2024-01-30T13:15:02;19.40;60.90
2621;DHT22;1320;48.128;11.592;2024-01-30T13:17:30;19.50;60.40
2621;DHT22;1320;48.128;11.592;2024-01-30T13:19:56;19.50;60.90
2621;DHT22;1320;48.128;11.592;2024-01-30T13:22:21;19.50;59.50
2621;DHT22;1320;48.128;11.592;2024-01-30T13:24:47;19.60;59.50
2621;DHT22;1320;48.128;11.592;2024-01-30T13:27:13;19.80;59.60
2621;DHT22;1320;48.128;11.592;2024-01-30T13:29:39;20.00;59.70
2621;DHT22;1320;48.128;11.592;2024-01-30T13:32:05;20.20;59.90
2621;DHT22;1320;48.128;11.592;2024-01-30T13:34:31;20.20;59.20
2621;DHT22;1320;48.128;11.592;2024-01-30T13:36:56;20.30;58.40
2621;DHT22;1320;48.128;11.592;2024-01-30T13:39:22;20.50;57.80
2621;DHT22;1320;48.128;11.592;2024-01-30T13:41:49;20.40;57.60
2621;DHT22;1320;48.128;11.592;2024-01-30T13:44:15;20.30;57.50
2621;DHT22;1320;48.128;11.592;2024-01-30T13:46:43;20.30;57.30
2621;DHT22;1320;48.128;11.592;2024-01-30T13:49:08;20.20;56.50
2621;DHT22;1320;48.128;11.592;2024-01-30T13:51:34;20.10;56.60
2621;DHT22;1320;48.128;11.592;2024-01-30T13:54:00;20.00;56.60
2621;DHT22;1320;48.128;11.592;2024-01-30T13:56:26;19.90;56.50
2621;DHT22;1320;48.128;11.592;2024-01-30T13:58:52;19.70;56.40
2621;DHT22;1320;48.128;11.592;2024-01-30T14:01:18;19.60;56.70
2621;DHT22;1320;48.128;11.592;2024-01-30T14:03:44;19.40;56.90
2621;DHT22;1320;48.128;11.592;2024-01-30T14:06:10;19.30;57.40
2621;DHT22;1320;48.128;11.592;2024-01-30T14:08:36;19.10;57.70
2621;DHT22;1320;48.128;11.592;2024-01-30T14:11:01;19.10;58.10
2621;DHT22;1320;48.128;11.592;2024-01-30T14:13:27;19.10;57.90
2621;DHT22;1320;48.128;11.592;2024-01-30T14:15:53;19.10;58.10
2621;DHT22;1320;48.128;11.592;2024-01-30T14:18:19;19.00;57.60
2621;DHT22;1320;48.128;11.592;2024-01-30T14:20:45;18.90;58.40
2621;DHT22;1320;48.128;11.592;2024-01-30T14:23:10;18.90;58.40
2621;DHT22;1320;48.128;11.592;2024-01-30T14:25:36;18.80;58.20
2621;DHT22;1320;48.128;11.592;2024-01-30T14:28:02;18.80;58.40
2621;DHT22;1320;48.128;11.592;2024-01-30T14:30:27;18.70;58.80
2621;DHT22;1320;48.128;11.592;2024-01-30T14:32:53;18.60;59.30
2621;DHT22;1320;48.128;11.592;2024-01-30T14:35:20;18.50;59.70
2621;DHT22;1320;48.128;11.592;2024-01-30T14:37:45;18.40;59.80
2621;DHT22;1320;48.128;11.592;2024-01-30T14:40:11;18.30;60.50
2621;DHT22;1320;48.128;11.592;2024-01-30T14:42:37;18.20;60.70
2621;DHT22;1320;48.128;11.592;2024-01-30T14:45:04;18.10;61.20
2621;DHT22;1320;48.128;11.592;2024-01-30T14:47:30;18.00;61.50
2621;DHT22;1320;48.128;11.592;2024-01-30T14:49:57;17.90;61.60
2621;DHT22;1320;48.128;11.592;2024-01-30T14:52:23;17.80;62.30
2621;DHT22;1320;48.128;11.592;2024-01-30T14:54:48;17.60;62.40
2621;DHT22;1320;48.128;11.592;2024-01-30T14:57:14;17.50;63.00
2621;DHT22;1320;48.128;11.592;2024-01-30T14:59:40;17.40;63.60
2621;DHT22;1320;48.128;11.592;2024-01-30T15:02:06;17.20;64.20
2621;DHT22;1320;48.128;11.592;2024-01-30T15:04:32;17.10;64.70
2621;DHT22;1320;48.128;11.592;2024-01-30T15:06:58;17.00;64.70
2621;DHT22;1320;48.128;11.592;2024-01-30T15:09:23;16.90;64.40
2621;DHT22;1320;48.128;11.592;2024-01-30T15:11:52;16.70;63.80
2621;DHT22;1320;48.128;11.592;2024-01-30T15:14:17;16.60;64.10
2621;DHT22;1320;48.128;11.592;2024-01-30T15:16:43;16.40;64.40
2621;DHT22;1320;48.128;11.592;2024-01-30T15:19:09;16.30;65.10
2621;DHT22;1320;48.128;11.592;2024-01-30T15:21:34;16.20;65.40
2621;DHT22;1320;48.128;11.592;2024-01-30T15:24:01;16.10;66.00
2621;DHT22;1320;48.128;11.592;2024-01-30T15:26:27;16.00;66.40
2621;DHT22;1320;48.128;11.592;2024-01-30T15:28:53;15.80;66.50
2621;DHT22;1320;48.128;11.592;2024-01-30T15:31:18;15.70;67.40
2621;DHT22;1320;48.128;11.592;2024-01-30T15:33:44;15.60;67.70
2621;DHT22;1320;48.128;11.592;2024-01-30T15:36:11;15.60;68.50
2621;DHT22;1320;48.128;11.592;2024-01-30T15:38:40;15.50;68.40
2621;DHT22;1320;48.128;11.592;2024-01-30T15:41:06;15.50;68.60
2621;DHT22;1320;48.128;11.592;2024-01-30T15:43:32;15.50;68.60
2621;DHT22;1320;48.128;11.592;2024-01-30T15:45:58;15.50;68.70
2621;DHT22;1320;48.128;11.592;2024-01-30T15:48:25;15.50;68.90
2621;DHT22;1320;48.128;11.592;2024-01-30T15:50:51;15.40;68.90
2621;DHT22;1320;48.128;11.592;2024-01-30T15:53:19;15.40;69.10
2621;DHT22;1320;48.128;11.592;2024-01-30T15:55:45;15.30;69.20
2621;DHT22;1320;48.128;11.592;2024-01-30T15:58:10;15.30;69.30
2621;DHT22;1320;48.128;11.592;2024-01-30T16:00:36;15.20;69.40
2621;DHT22;1320;48.128;11.592;2024-01-30T16:03:01;15.20;69.50
2621;DHT22;1320;48.128;11.592;2024-01-30T16:05:27;15.20;69.90
2621;DHT22;1320;48.128;11.592;2024-01-30T16:07:53;15.10;69.90